createdAt,value
2022-10-28T00:07:04.997Z,15.20
2022-10-28T00:16:58.334Z,14.30
2022-10-28T00:19:26.374Z,13.80
2022-10-28T00:21:55.769Z,15.10
2022-10-28T00:26:52.291Z,12.90
2022-10-28T00:29:21.512Z,15.00
2022-10-28T00:34:21.283Z,14.90
2022-10-28T00:39:21.384Z,14.00
2022-10-28T00:41:51.465Z,12.40
2022-10-28T00:44:49.564Z,13.40
2022-10-28T00:47:23.885Z,14.70
2022-10-28T00:49:55.597Z,14.70
2022-10-28T00:52:27.608Z,14.60
2022-10-28T00:54:58.679Z,14.60
2022-10-28T00:57:31.955Z,12.50
2022-10-28T01:00:02.759Z,14.60
2022-10-28T01:05:00.154Z,14.60
2022-10-28T01:09:58.158Z,14.60
2022-10-28T01:12:34.380Z,12.50
2022-10-28T01:15:10.763Z,14.60
2022-10-28T01:17:51.069Z,14.50
2022-10-28T01:21:01.680Z,14.50
2022-10-28T01:23:36.479Z,14.50
2022-10-28T01:26:32.243Z,19.20
2022-10-28T01:29:30.815Z,16.80
2022-10-28T01:32:06.062Z,14.30
2022-10-28T01:34:39.810Z,14.30
2022-10-28T01:37:15.307Z,14.30
2022-10-28T01:39:48.246Z,14.30
2022-10-28T01:42:27.630Z,14.30
2022-10-28T01:45:03.609Z,14.20
2022-10-28T01:47:38.547Z,14.30
2022-10-28T01:50:10.440Z,14.20
2022-10-28T01:52:41.524Z,19.10
2022-10-28T01:55:14.934Z,11.40
2022-10-28T01:57:44.444Z,14.10
2022-10-28T02:00:13.631Z,17.10
2022-10-28T02:02:43.872Z,14.20
2022-10-28T02:05:41.443Z,14.20
2022-10-28T02:08:28.983Z,14.20
2022-10-28T02:11:10.739Z,14.10
2022-10-28T02:13:47.756Z,14.10
2022-10-28T02:16:23.945Z,14.20
2022-10-28T02:19:03.143Z,13.30
2022-10-28T02:21:41.498Z,14.30
2022-10-28T02:24:17.317Z,14.30
2022-10-28T02:26:53.011Z,14.30
2022-10-28T02:29:29.106Z,14.30
2022-10-28T02:32:00.829Z,13.60
2022-10-28T02:34:33.049Z,14.30
2022-10-28T02:37:04.751Z,14.20
2022-10-28T02:39:40.634Z,14.20
2022-10-28T02:42:14.088Z,14.20
2022-10-28T02:44:49.669Z,14.10
2022-10-28T02:47:21.244Z,14.10
2022-10-28T02:49:54.455Z,14.10
2022-10-28T02:52:25.717Z,14.20
2022-10-28T02:54:56.936Z,14.20
2022-10-28T02:57:27.358Z,14.10
2022-10-28T03:02:25.336Z,14.10
2022-10-28T03:04:55.021Z,14.00
2022-10-28T03:19:45.539Z,18.60
2022-10-28T03:22:14.967Z,13.90
2022-10-28T03:39:40.991Z,13.90
2022-10-28T03:44:37.430Z,12.60
2022-10-28T03:57:01.211Z,13.70
2022-10-28T03:59:29.254Z,12.20
2022-10-28T04:14:25.365Z,13.50
2022-10-28T04:24:18.650Z,11.20
2022-10-28T04:31:48.668Z,13.40
2022-10-28T04:46:51.131Z,13.00
2022-10-28T04:51:55.459Z,11.80
2022-10-28T04:54:24.352Z,18.00
2022-10-28T04:56:55.795Z,11.30
2022-10-28T05:01:54.902Z,13.30
2022-10-28T05:19:27.398Z,13.00
2022-10-28T05:34:22.611Z,13.00
2022-10-28T05:49:12.920Z,10.10
2022-10-28T05:51:42.377Z,11.90
2022-10-28T05:59:07.340Z,17.20
2022-10-28T06:09:02.707Z,12.30
2022-10-28T06:13:57.727Z,15.70
2022-10-28T06:26:21.043Z,13.10
2022-10-28T06:33:46.182Z,11.80
2022-10-28T06:43:41.409Z,13.30
2022-10-28T06:53:37.651Z,13.30
2022-10-28T06:56:06.584Z,16.20
2022-10-28T07:01:06.636Z,13.30
2022-10-28T07:11:07.041Z,13.40
2022-10-28T07:18:34.941Z,13.50
2022-10-28T07:23:34.980Z,13.70
2022-10-28T07:36:04.458Z,13.90
2022-10-28T07:41:05.462Z,14.00
2022-10-28T07:46:09.746Z,12.40
2022-10-28T07:48:41.304Z,14.10
2022-10-28T07:51:14.940Z,14.10
2022-10-28T07:53:43.769Z,14.10
2022-10-28T07:56:14.454Z,14.10
2022-10-28T07:58:46.261Z,14.20
2022-10-28T08:01:17.533Z,14.10
2022-10-28T08:06:26.212Z,14.20
2022-10-28T08:08:56.325Z,14.30
2022-10-28T08:11:29.730Z,14.30
2022-10-28T08:21:27.391Z,14.50
2022-10-28T08:26:25.022Z,14.60
2022-10-28T08:36:20.396Z,14.70
2022-10-28T08:38:49.861Z,14.70
2022-10-28T08:41:29.855Z,14.80
2022-10-28T08:44:21.995Z,14.80
2022-10-28T08:47:01.406Z,14.90
2022-10-28T08:49:34.265Z,14.90
2022-10-28T08:52:08.906Z,15.00
2022-10-28T08:54:47.322Z,15.00
2022-10-28T08:57:20.168Z,15.10
2022-10-28T08:59:51.997Z,15.10
2022-10-28T09:02:23.574Z,15.20
2022-10-28T09:04:57.684Z,15.40
2022-10-28T09:07:27.980Z,15.50
2022-10-28T09:10:02.571Z,15.50
2022-10-28T09:12:43.318Z,15.60
2022-10-28T09:15:27.215Z,15.70
2022-10-28T09:18:00.252Z,15.70
2022-10-28T09:20:40.270Z,15.80
2022-10-28T09:23:17.229Z,15.80
2022-10-28T09:25:56.476Z,15.90
2022-10-28T09:28:40.904Z,15.90
2022-10-28T09:31:15.810Z,16.00
2022-10-28T09:34:02.128Z,13.40
2022-10-28T09:36:46.899Z,16.20
2022-10-28T09:40:14.579Z,16.30
2022-10-28T09:42:50.804Z,15.60
2022-10-28T09:45:25.187Z,16.50
2022-10-28T09:47:59.543Z,16.50
2022-10-28T09:50:31.432Z,16.60
2022-10-28T09:53:06.604Z,16.60
2022-10-28T09:58:06.426Z,16.20
2022-10-28T10:05:34.267Z,16.90
2022-10-28T10:08:05.773Z,20.60
2022-10-28T10:10:39.018Z,16.90
2022-10-28T10:13:09.439Z,17.00
2022-10-28T10:15:41.019Z,17.00
2022-10-28T10:18:16.826Z,16.70
2022-10-28T10:20:52.856Z,15.20
2022-10-28T10:23:29.048Z,17.20
2022-10-28T10:26:06.669Z,15.60
2022-10-28T10:28:42.869Z,17.40
2022-10-28T10:31:19.486Z,21.50
2022-10-28T10:33:51.036Z,17.60
2022-10-28T10:36:23.728Z,16.50
2022-10-28T10:38:54.100Z,17.80
2022-10-28T10:41:35.738Z,17.00
2022-10-28T10:44:26.330Z,16.00
2022-10-28T10:47:19.407Z,18.00
2022-10-28T10:52:30.240Z,18.00
2022-10-28T10:55:02.818Z,18.00
2022-10-28T10:57:31.637Z,18.00
2022-10-28T11:00:01.435Z,18.00
2022-10-28T11:02:33.648Z,17.60
2022-10-28T11:05:05.354Z,21.30
2022-10-28T11:07:34.751Z,18.00
2022-10-28T11:10:03.582Z,15.90
2022-10-28T11:12:35.232Z,18.00
2022-10-28T11:15:21.544Z,18.10
2022-10-28T11:17:57.796Z,18.10
2022-10-28T11:20:30.982Z,18.20
2022-10-28T11:23:22.015Z,18.20
2022-10-28T11:25:52.552Z,15.60
2022-10-28T11:28:36.057Z,18.30
2022-10-28T11:31:24.359Z,17.90
2022-10-28T11:34:10.718Z,17.40
2022-10-28T11:36:46.494Z,17.50
2022-10-28T11:39:21.811Z,18.50
2022-10-28T11:42:06.032Z,16.70
2022-10-28T11:44:45.058Z,17.60
2022-10-28T11:47:41.030Z,23.10
2022-10-28T11:50:23.831Z,16.80
2022-10-28T11:53:06.114Z,17.40
2022-10-28T11:55:40.043Z,18.90
2022-10-28T11:58:16.949Z,23.90
2022-10-28T12:00:55.734Z,24.00
2022-10-28T12:03:44.299Z,19.60
2022-10-28T12:06:19.640Z,20.10
2022-10-28T12:09:04.162Z,20.30
2022-10-28T12:11:44.760Z,21.00
2022-10-28T12:14:19.100Z,19.60
2022-10-28T12:16:55.556Z,20.00
2022-10-28T12:19:29.994Z,19.90
2022-10-28T12:22:05.874Z,20.80
2022-10-28T12:24:38.630Z,20.50
2022-10-28T12:27:17.191Z,21.90
2022-10-28T12:29:50.029Z,20.40
2022-10-28T12:32:23.582Z,22.10
2022-10-28T12:35:00.453Z,23.20
2022-10-28T12:37:56.042Z,22.30
2022-10-28T12:40:29.367Z,22.40
2022-10-28T12:43:01.923Z,22.40
2022-10-28T12:45:33.193Z,22.50
2022-10-28T12:48:09.271Z,22.50
2022-10-28T12:50:45.648Z,22.80
2022-10-28T12:53:29.744Z,22.30
2022-10-28T12:56:00.284Z,22.60
2022-10-28T12:58:33.671Z,22.60
2022-10-28T13:01:04.314Z,22.60
2022-10-28T13:03:33.156Z,22.50
2022-10-28T13:06:23.109Z,23.50
2022-10-28T13:09:13.354Z,22.50
2022-10-28T13:12:16.789Z,22.50
2022-10-28T13:15:12.902Z,22.20
2022-10-28T13:17:53.287Z,21.80
2022-10-28T13:20:32.333Z,22.50
2022-10-28T13:23:11.567Z,22.60
2022-10-28T13:26:10.955Z,22.70
2022-10-28T13:28:47.225Z,22.50
2022-10-28T13:31:15.805Z,22.40
2022-10-28T13:33:52.611Z,21.10
2022-10-28T13:36:26.009Z,22.50
2022-10-28T13:38:59.656Z,22.10
2022-10-28T13:41:32.218Z,21.40
2022-10-28T13:44:16.733Z,22.50
2022-10-28T13:47:19.123Z,22.10
2022-10-28T13:50:25.867Z,20.80
2022-10-28T13:53:44.659Z,21.70
2022-10-28T13:56:44.596Z,22.70
2022-10-28T13:59:29.369Z,21.30
2022-10-28T14:02:33.384Z,19.80
2022-10-28T14:04:59.808Z,20.70
2022-10-28T14:07:31.422Z,22.10
2022-10-28T14:10:17.591Z,21.50
2022-10-28T14:12:53.888Z,20.70
2022-10-28T14:15:28.203Z,21.20
2022-10-28T14:18:10.476Z,22.10
2022-10-28T14:21:00.683Z,20.90
2022-10-28T14:24:16.949Z,20.80
2022-10-28T14:27:31.086Z,21.10
2022-10-28T14:30:30.561Z,22.00
2022-10-28T14:33:23.105Z,22.10
2022-10-28T14:36:00.926Z,19.80
2022-10-28T14:38:54.851Z,21.70
2022-10-28T14:41:53.368Z,21.00
2022-10-28T14:44:40.503Z,21.90
2022-10-28T14:47:29.390Z,21.80
2022-10-28T14:50:02.870Z,20.20
2022-10-28T14:52:35.281Z,21.70
2022-10-28T14:55:06.402Z,21.90
2022-10-28T14:57:35.850Z,20.30
2022-10-28T15:00:07.649Z,21.70
2022-10-28T15:02:39.034Z,21.70
2022-10-28T15:05:18.354Z,21.60
2022-10-28T15:07:50.786Z,20.70
2022-10-28T15:10:21.020Z,22.40
2022-10-28T15:12:51.424Z,21.60
2022-10-28T15:15:21.821Z,20.20
2022-10-28T15:17:51.744Z,21.50
2022-10-28T15:20:27.460Z,21.50
2022-10-28T15:23:12.647Z,21.50
2022-10-28T15:28:13.636Z,21.00
2022-10-28T15:30:46.760Z,21.40
2022-10-28T15:33:30.784Z,21.40
2022-10-28T15:36:18.085Z,21.40
2022-10-28T15:38:47.839Z,21.40
2022-10-28T15:41:52.483Z,19.90
2022-10-28T15:44:31.222Z,21.30
2022-10-28T15:47:13.321Z,25.30
2022-10-28T15:49:42.833Z,21.20
2022-10-28T15:52:40.864Z,19.40
2022-10-28T15:55:35.790Z,21.10
2022-10-28T15:58:35.724Z,19.70
2022-10-28T16:01:05.036Z,21.20
2022-10-28T16:03:43.754Z,20.50
2022-10-28T16:06:27.971Z,21.10
2022-10-28T16:09:13.629Z,19.80
2022-10-28T16:11:46.074Z,20.70
2022-10-28T16:14:34.799Z,19.60
2022-10-28T16:17:16.535Z,18.90
2022-10-28T16:19:51.013Z,20.40
2022-10-28T16:22:25.759Z,20.30
2022-10-28T16:24:54.979Z,20.20
2022-10-28T16:27:24.733Z,18.80
2022-10-28T16:32:26.743Z,20.40
2022-10-28T16:34:54.905Z,19.50
2022-10-28T16:37:27.001Z,19.90
2022-10-28T16:39:55.893Z,19.30
2022-10-28T16:42:25.153Z,19.20
2022-10-28T16:47:25.539Z,18.20
2022-10-28T16:50:00.112Z,19.60
2022-10-28T16:52:32.080Z,19.60
2022-10-28T16:55:00.371Z,19.60
2022-10-28T16:57:28.982Z,18.40
2022-10-28T16:59:57.220Z,19.10
2022-10-28T17:02:29.271Z,18.60
2022-10-28T17:04:58.277Z,20.80
2022-10-28T17:07:26.555Z,19.40
2022-10-28T17:09:56.914Z,19.40
2022-10-28T17:12:27.188Z,17.90
2022-10-28T17:14:55.399Z,17.20
2022-10-28T17:17:23.602Z,18.80
2022-10-28T17:19:51.664Z,23.90
2022-10-28T17:22:19.799Z,19.40
2022-10-28T17:24:47.957Z,18.20
2022-10-28T17:27:17.388Z,19.30
2022-10-28T17:29:45.821Z,17.50
2022-10-28T17:34:42.575Z,17.10
2022-10-28T17:42:07.829Z,17.80
2022-10-28T17:44:37.779Z,19.20
2022-10-28T17:49:37.079Z,19.10
2022-10-28T17:59:32.506Z,18.00
2022-10-28T18:02:02.146Z,17.00
2022-10-28T18:07:00.838Z,18.40
2022-10-28T18:16:59.695Z,18.80
2022-10-28T18:19:29.401Z,18.80
2022-10-28T18:21:57.529Z,18.20
2022-10-28T18:26:57.142Z,18.80
2022-10-28T18:31:53.996Z,18.30
2022-10-28T18:36:53.539Z,17.50
2022-10-28T18:46:57.275Z,18.70
2022-10-28T18:51:59.669Z,18.70
2022-10-28T18:56:57.730Z,23.20
2022-10-28T18:59:32.890Z,18.70
2022-10-28T19:07:01.982Z,18.60
2022-10-28T19:17:19.020Z,17.10
2022-10-28T19:22:23.501Z,18.40
2022-10-28T19:32:17.228Z,16.90
2022-10-28T19:37:13.798Z,16.50
2022-10-28T19:39:43.358Z,18.20
2022-10-28T19:47:09.022Z,22.80
2022-10-28T19:49:44.346Z,16.50
2022-10-28T19:52:12.937Z,17.40
2022-10-28T19:57:11.118Z,18.10
2022-10-28T20:14:39.140Z,17.30
2022-10-28T20:24:35.487Z,17.70
2022-10-28T20:32:01.722Z,22.10
2022-10-28T20:44:27.941Z,16.40
2022-10-28T20:49:25.821Z,17.50
2022-10-28T20:54:29.821Z,17.50
2022-10-28T20:57:02.458Z,17.20
2022-10-28T21:01:59.120Z,16.40
2022-10-28T21:04:30.102Z,17.20
2022-10-28T21:11:55.199Z,21.00
2022-10-28T21:14:26.404Z,17.60
2022-10-28T21:21:54.311Z,17.50
2022-10-28T21:34:19.416Z,17.30
2022-10-28T21:39:25.138Z,17.40
2022-10-28T21:41:53.223Z,17.70
2022-10-28T21:46:51.725Z,14.90
2022-10-28T21:49:19.797Z,16.20
2022-10-28T21:54:18.771Z,17.20
2022-10-28T21:56:46.926Z,15.20
2022-10-28T22:09:17.360Z,16.50
2022-10-28T22:14:14.279Z,16.80
2022-10-28T22:16:42.858Z,16.00
2022-10-28T22:19:14.423Z,21.50
2022-10-28T22:24:11.600Z,21.40
2022-10-28T22:26:41.053Z,17.00
2022-10-28T22:31:37.599Z,15.90
2022-10-28T22:34:06.382Z,15.80
2022-10-28T22:36:34.518Z,14.80
2022-10-28T22:39:04.598Z,16.50
2022-10-28T22:41:33.755Z,17.00
2022-10-28T22:44:04.702Z,16.20
2022-10-28T22:46:36.461Z,16.90
2022-10-28T22:49:05.441Z,16.80
2022-10-28T22:59:01.216Z,16.70
2022-10-28T23:01:31.213Z,20.60
2022-10-28T23:13:56.767Z,16.60
2022-10-28T23:16:25.610Z,16.60
2022-10-28T23:18:55.235Z,16.50
2022-10-28T23:21:24.721Z,14.40
2022-10-28T23:23:56.271Z,16.50
2022-10-28T23:26:25.456Z,16.50
2022-10-28T23:28:54.788Z,16.40
2022-10-28T23:31:31.821Z,16.40
2022-10-28T23:34:01.537Z,16.40
2022-10-28T23:38:58.201Z,15.00
2022-10-28T23:51:21.548Z,16.30
